sensor_id;sensor_type;location;lat;lon;timestamp;pressure;altitude;pressure_sealevel;temperature;humidity
73600;BME280;61877;48.246;9.220;2023-02-13T00:00:43;95878.06;;;-1.37;96.57
73600;BME280;61877;48.246;9.220;2023-02-13T00:03:09;95867.97;;;-1.40;97.18
73600;BME280;61877;48.246;9.220;2023-02-13T00:05:34;95868.63;;;-1.44;97.20
73600;BME280;61877;48.246;9.220;2023-02-13T00:08:00;95869.50;;;-1.50;97.26
73600;BME280;61877;48.246;9.220;2023-02-13T00:10:27;95870.31;;;-1.50;97.72
73600;BME280;61877;48.246;9.220;2023-02-13T00:12:55;95872.34;;;-1.52;96.83
73600;BME280;61877;48.246;9.220;2023-02-13T00:15:21;95862.50;;;-1.56;97.12
73600;BME280;61877;48.246;9.220;2023-02-13T00:17:47;95862.72;;;-1.58;97.15
73600;BME280;61877;48.246;9.220;2023-02-13T00:20:13;95858.22;;;-1.21;99.08
73600;BME280;61877;48.246;9.220;2023-02-13T00:22:39;95867.69;;;-1.32;98.43
73600;BME280;61877;48.246;9.220;2023-02-13T00:25:06;95861.69;;;-1.39;97.74
73600;BME280;61877;48.246;9.220;2023-02-13T00:27:34;95859.34;;;-1.47;97.69
73600;BME280;61877;48.246;9.220;2023-02-13T00:30:00;95867.47;;;-1.48;97.87
73600;BME280;61877;48.246;9.220;2023-02-13T00:32:29;95870.69;;;-1.46;97.94
73600;BME280;61877;48.246;9.220;2023-02-13T00:34:55;95865.66;;;-1.48;97.75
73600;BME280;61877;48.246;9.220;2023-02-13T00:37:21;95869.50;;;-1.50;97.69
73600;BME280;61877;48.246;9.220;2023-02-13T00:39:47;95864.53;;;-1.58;97.44
73600;BME280;61877;48.246;9.220;2023-02-13T00:42:12;95864.00;;;-1.67;96.90
73600;BME280;61877;48.246;9.220;2023-02-13T00:44:39;95865.91;;;-1.74;97.53
73600;BME280;61877;48.246;9.220;2023-02-13T00:47:05;95861.97;;;-1.83;96.86
73600;BME280;61877;48.246;9.220;2023-02-13T00:49:31;95858.97;;;-1.86;97.23
73600;BME280;61877;48.246;9.220;2023-02-13T00:51:57;95868.81;;;-1.82;97.78
73600;BME280;61877;48.246;9.220;2023-02-13T00:54:23;95859.84;;;-1.74;96.90
73600;BME280;61877;48.246;9.220;2023-02-13T00:56:49;95869.13;;;-1.72;97.18
73600;BME280;61877;48.246;9.220;2023-02-13T00:59:15;95864.53;;;-1.76;97.07
73600;BME280;61877;48.246;9.220;2023-02-13T01:01:44;95866.63;;;-1.85;96.75
73600;BME280;61877;48.246;9.220;2023-02-13T01:04:11;95864.66;;;-1.89;97.34
73600;BME280;61877;48.246;9.220;2023-02-13T01:06:36;95866.31;;;-1.95;97.13
73600;BME280;61877;48.246;9.220;2023-02-13T01:09:03;95865.72;;;-1.97;97.28
73600;BME280;61877;48.246;9.220;2023-02-13T01:11:32;95859.88;;;-1.99;97.55
73600;BME280;61877;48.246;9.220;2023-02-13T01:13:58;95860.47;;;-1.97;97.83
73600;BME280;61877;48.246;9.220;2023-02-13T01:16:24;95859.88;;;-1.99;97.67
73600;BME280;61877;48.246;9.220;2023-02-13T01:18:52;95866.75;;;-1.98;97.94
73600;BME280;61877;48.246;9.220;2023-02-13T01:21:19;95863.16;;;-2.03;97.23
73600;BME280;61877;48.246;9.220;2023-02-13T01:23:46;95869.59;;;-1.99;97.76
73600;BME280;61877;48.246;9.220;2023-02-13T01:26:17;95860.47;;;-1.97;97.61
73600;BME280;61877;48.246;9.220;2023-02-13T01:28:44;95866.75;;;-1.98;97.25
73600;BME280;61877;48.246;9.220;2023-02-13T01:31:11;95864.56;;;-2.01;97.46
73600;BME280;61877;48.246;9.220;2023-02-13T01:33:37;95857.28;;;-2.05;97.34
73600;BME280;61877;48.246;9.220;2023-02-13T01:36:10;95862.84;;;-2.13;97.11
73600;BME280;61877;48.246;9.220;2023-02-13T01:38:37;95858.81;;;-2.16;97.31
73600;BME280;61877;48.246;9.220;2023-02-13T01:41:03;95863.09;;;-2.21;97.20
73600;BME280;61877;48.246;9.220;2023-02-13T01:43:43;95864.75;;;-2.27;97.28
73600;BME280;61877;48.246;9.220;2023-02-13T01:46:10;95859.34;;;-2.32;97.45
73600;BME280;61877;48.246;9.220;2023-02-13T01:48:37;95860.81;;;-2.36;97.63
73600;BME280;61877;48.246;9.220;2023-02-13T01:51:12;95856.88;;;-2.27;98.08
73600;BME280;61877;48.246;9.220;2023-02-13T01:53:42;95853.25;;;-2.26;97.90
73600;BME280;61877;48.246;9.220;2023-02-13T01:56:14;95855.50;;;-2.29;97.70
73600;BME280;61877;48.246;9.220;2023-02-13T01:58:45;95853.53;;;-2.34;97.82
73600;BME280;61877;48.246;9.220;2023-02-13T02:01:12;95847.56;;;-2.23;98.39
73600;BME280;61877;48.246;9.220;2023-02-13T02:03:41;95849.91;;;-2.15;97.77
73600;BME280;61877;48.246;9.220;2023-02-13T02:06:15;95847.34;;;-2.21;97.33
73600;BME280;61877;48.246;9.220;2023-02-13T02:08:44;95851.63;;;-2.27;97.48
73600;BME280;61877;48.246;9.220;2023-02-13T02:11:24;95848.84;;;-2.32;97.32
73600;BME280;61877;48.246;9.220;2023-02-13T02:13:52;95854.25;;;-2.27;97.24
73600;BME280;61877;48.246;9.220;2023-02-13T02:16:19;95856.03;;;-2.21;97.76
73600;BME280;61877;48.246;9.220;2023-02-13T02:18:45;95852.75;;;-2.16;97.06
73600;BME280;61877;48.246;9.220;2023-02-13T02:21:50;95847.44;;;-2.10;97.44
73600;BME280;61877;48.246;9.220;2023-02-13T02:24:46;95847.31;;;-1.97;97.87
73600;BME280;61877;48.246;9.220;2023-02-13T02:27:40;95848.00;;;-1.83;97.45
73600;BME280;61877;48.246;9.220;2023-02-13T02:30:44;95851.16;;;-1.75;97.40
73600;BME280;61877;48.246;9.220;2023-02-13T02:33:32;95848.97;;;-1.60;97.08
73600;BME280;61877;48.246;9.220;2023-02-13T02:36:19;95841.59;;;-1.51;96.82
73600;BME280;61877;48.246;9.220;2023-02-13T02:39:02;95851.59;;;-1.42;96.57
73600;BME280;61877;48.246;9.220;2023-02-13T02:41:40;95852.13;;;-1.33;97.05
73600;BME280;61877;48.246;9.220;2023-02-13T02:44:31;95850.41;;;-1.27;96.51
73600;BME280;61877;48.246;9.220;2023-02-13T02:47:07;95844.88;;;-1.19;96.25
73600;BME280;61877;48.246;9.220;2023-02-13T02:49:37;95852.69;;;-1.13;96.67
73600;BME280;61877;48.246;9.220;2023-02-13T02:52:10;95852.59;;;-1.06;96.65
73600;BME280;61877;48.246;9.220;2023-02-13T02:54:44;95856.81;;;-1.05;96.57
73600;BME280;61877;48.246;9.220;2023-02-13T02:57:14;95858.13;;;-0.96;96.47
73600;BME280;61877;48.246;9.220;2023-02-13T02:59:42;95853.56;;;-0.89;96.08
73600;BME280;61877;48.246;9.220;2023-02-13T03:02:09;95850.19;;;-0.78;96.47
73600;BME280;61877;48.246;9.220;2023-02-13T03:04:41;95850.31;;;-0.73;95.74
73600;BME280;61877;48.246;9.220;2023-02-13T03:07:11;95861.78;;;-0.68;96.30
73600;BME280;61877;48.246;9.220;2023-02-13T03:09:41;95852.63;;;-0.65;96.20
73600;BME280;61877;48.246;9.220;2023-02-13T03:12:11;95858.50;;;-0.63;96.02
73600;BME280;61877;48.246;9.220;2023-02-13T03:14:38;95856.66;;;-0.63;95.62
73600;BME280;61877;48.246;9.220;2023-02-13T03:17:05;95859.88;;;-0.61;95.69
73600;BME280;61877;48.246;9.220;2023-02-13T03:19:46;95853.50;;;-0.53;96.23
73600;BME280;61877;48.246;9.220;2023-02-13T03:22:27;95852.44;;;-0.52;95.65
73600;BME280;61877;48.246;9.220;2023-02-13T03:25:01;95851.41;;;-0.51;95.70
73600;BME280;61877;48.246;9.220;2023-02-13T03:27:35;95853.63;;;-0.48;95.99
73600;BME280;61877;48.246;9.220;2023-02-13T03:30:12;95858.53;;;-0.52;95.52
73600;BME280;61877;48.246;9.220;2023-02-13T03:32:45;95860.47;;;-0.47;96.26
73600;BME280;61877;48.246;9.220;2023-02-13T03:35:30;95856.38;;;-0.43;96.54
73600;BME280;61877;48.246;9.220;2023-02-13T03:38:04;95865.44;;;-0.39;96.15
73600;BME280;61877;48.246;9.220;2023-02-13T03:40:39;95867.50;;;-0.30;96.61
73600;BME280;61877;48.246;9.220;2023-02-13T03:43:11;95867.84;;;-0.26;96.66
73600;BME280;61877;48.246;9.220;2023-02-13T03:45:40;95871.06;;;-0.24;96.28
73600;BME280;61877;48.246;9.220;2023-02-13T03:48:08;95868.34;;;-0.18;96.37
73600;BME280;61877;48.246;9.220;2023-02-13T03:50:41;95871.91;;;-0.12;96.67
73600;BME280;61877;48.246;9.220;2023-02-13T03:53:11;95877.88;;;-0.05;97.03
73600;BME280;61877;48.246;9.220;2023-02-13T03:55:41;95868.94;;;-0.04;96.62
73600;BME280;61877;48.246;9.220;2023-02-13T03:58:13;95877.09;;;0.06;96.82
73600;BME280;61877;48.246;9.220;2023-02-13T04:00:43;95872.28;;;0.15;96.46
73600;BME280;61877;48.246;9.220;2023-02-13T04:03:14;95867.47;;;0.23;97.21
73600;BME280;61877;48.246;9.220;2023-02-13T04:05:48;95869.06;;;0.47;96.89
73600;BME280;61877;48.246;9.220;2023-02-13T04:08:15;95869.88;;;0.48;96.81
73600;BME280;61877;48.246;9.220;2023-02-13T04:10:47;95885.13;;;0.46;97.03
73600;BME280;61877;48.246;9.220;2023-02-13T04:13:17;95875.81;;;0.43;97.00
73600;BME280;61877;48.246;9.220;2023-02-13T04:15:49;95875.25;;;0.41;97.14
73600;BME280;61877;48.246;9.220;2023-02-13T04:18:18;95878.69;;;0.42;97.53
73600;BME280;61877;48.246;9.220;2023-02-13T04:20:47;95882.00;;;0.60;97.20
73600;BME280;61877;48.246;9.220;2023-02-13T04:23:14;95880.41;;;0.59;96.57
73600;BME280;61877;48.246;9.220;2023-02-13T04:25:43;95878.25;;;0.56;96.57
73600;BME280;61877;48.246;9.220;2023-02-13T04:28:13;95881.91;;;0.55;96.89
73600;BME280;61877;48.246;9.220;2023-02-13T04:30:38;95882.84;;;0.49;96.88
73600;BME280;61877;48.246;9.220;2023-02-13T04:33:05;95888.69;;;0.51;97.26
73600;BME280;61877;48.246;9.220;2023-02-13T04:35:31;95886.50;;;0.48;96.74
73600;BME280;61877;48.246;9.220;2023-02-13T04:37:58;95891.66;;;0.43;96.73
73600;BME280;61877;48.246;9.220;2023-02-13T04:40:25;95888.69;;;0.40;97.38
73600;BME280;61877;48.246;9.220;2023-02-13T04:42:52;95888.91;;;0.38;97.32
73600;BME280;61877;48.246;9.220;2023-02-13T04:45:17;95883.41;;;0.40;97.44
73600;BME280;61877;48.246;9.220;2023-02-13T04:47:49;95886.50;;;0.37;97.59
73600;BME280;61877;48.246;9.220;2023-02-13T04:50:16;95884.31;;;0.34;97.36
73600;BME280;61877;48.246;9.220;2023-02-13T04:52:43;95892.94;;;0.29;97.55
73600;BME280;61877;48.246;9.220;2023-02-13T04:55:11;95889.00;;;0.32;97.66
73600;BME280;61877;48.246;9.220;2023-02-13T04:57:37;95893.50;;;0.31;97.35
73600;BME280;61877;48.246;9.220;2023-02-13T05:00:05;95893.97;;;0.28;97.22
73600;BME280;61877;48.246;9.220;2023-02-13T05:02:32;95892.94;;;0.29;97.21
73600;BME280;61877;48.246;9.220;2023-02-13T05:04:58;95896.03;;;0.26;97.45
73600;BME280;61877;48.246;9.220;2023-02-13T05:07:24;95897.06;;;0.25;97.48
73600;BME280;61877;48.246;9.220;2023-02-13T05:09:50;95896.50;;;0.23;97.47
73600;BME280;61877;48.246;9.220;2023-02-13T05:12:18;95895.91;;;0.21;96.87
73600;BME280;61877;48.246;9.220;2023-02-13T05:14:45;95898.78;;;0.20;97.08
73600;BME280;61877;48.246;9.220;2023-02-13T05:17:12;95901.66;;;0.18;97.18
73600;BME280;61877;48.246;9.220;2023-02-13T05:19:38;95899.81;;;0.19;97.07
73600;BME280;61877;48.246;9.220;2023-02-13T05:22:05;95897.97;;;0.19;97.25
73600;BME280;61877;48.246;9.220;2023-02-13T05:24:31;95901.44;;;0.20;97.21
73600;BME280;61877;48.246;9.220;2023-02-13T05:26:58;95893.28;;;0.21;97.30
73600;BME280;61877;48.246;9.220;2023-02-13T05:29:25;95891.09;;;0.18;97.18
73600;BME280;61877;48.246;9.220;2023-02-13T05:31:53;95901.53;;;0.25;97.37
73600;BME280;61877;48.246;9.220;2023-02-13T05:34:21;95898.22;;;0.29;96.98
73600;BME280;61877;48.246;9.220;2023-02-13T05:36:48;95898.78;;;0.31;97.00
73600;BME280;61877;48.246;9.220;2023-02-13T05:39:15;95892.47;;;0.44;96.69
73600;BME280;61877;48.246;9.220;2023-02-13T05:41:44;95898.66;;;0.49;95.67
73600;BME280;61877;48.246;9.220;2023-02-13T05:44:12;95894.28;;;0.43;95.56
73600;BME280;61877;48.246;9.220;2023-02-13T05:46:40;95897.88;;;0.37;96.25
73600;BME280;61877;48.246;9.220;2023-02-13T05:49:08;95900.97;;;0.34;96.51
73600;BME280;61877;48.246;9.220;2023-02-13T05:51:34;95896.94;;;0.32;96.56
73600;BME280;61877;48.246;9.220;2023-02-13T05:54:01;95893.75;;;0.30;96.58
73600;BME280;61877;48.246;9.220;2023-02-13T05:56:28;95882.84;;;0.26;96.88
73600;BME280;61877;48.246;9.220;2023-02-13T05:58:54;95886.38;;;0.20;96.67
73600;BME280;61877;48.246;9.220;2023-02-13T06:01:20;95880.09;;;0.21;96.82
73600;BME280;61877;48.246;9.220;2023-02-13T06:03:47;95880.97;;;0.27;95.10
73600;BME280;61877;48.246;9.220;2023-02-13T06:06:13;95881.09;;;0.20;95.62
73600;BME280;61877;48.246;9.220;2023-02-13T06:08:39;95888.91;;;0.15;95.94
73600;BME280;61877;48.246;9.220;2023-02-13T06:11:05;95883.06;;;0.13;96.16
73600;BME280;61877;48.246;9.220;2023-02-13T06:13:31;95882.25;;;0.13;95.93
73600;BME280;61877;48.246;9.220;2023-02-13T06:15:57;95890.41;;;0.11;95.74
73600;BME280;61877;48.246;9.220;2023-02-13T06:18:26;95893.38;;;0.03;96.12
73600;BME280;61877;48.246;9.220;2023-02-13T06:20:53;95894.41;;;0.02;96.43
73600;BME280;61877;48.246;9.220;2023-02-13T06:23:20;95897.03;;;0.02;96.58
73600;BME280;61877;48.246;9.220;2023-02-13T06:25:46;95899.44;;;0.03;96.36
73600;BME280;61877;48.246;9.220;2023-02-13T06:28:12;95894.63;;;0.00;96.17
73600;BME280;61877;48.246;9.220;2023-02-13T06:30:39;95894.41;;;0.02;96.70
73600;BME280;61877;48.246;9.220;2023-02-13T06:33:09;95890.97;;;0.02;96.56
73600;BME280;61877;48.246;9.220;2023-02-13T06:35:35;95896.00;;;0.03;96.52
73600;BME280;61877;48.246;9.220;2023-02-13T06:38:14;95900.72;;;0.01;96.51
73600;BME280;61877;48.246;9.220;2023-02-13T06:40:44;95899.66;;;0.02;96.68
73600;BME280;61877;48.246;9.220;2023-02-13T06:43:11;95903.00;;;0.09;96.52
73600;BME280;61877;48.246;9.220;2023-02-13T06:45:39;95902.53;;;0.12;96.54
73600;BME280;61877;48.246;9.220;2023-02-13T06:48:08;95897.72;;;0.09;96.25
73600;BME280;61877;48.246;9.220;2023-02-13T06:50:34;95897.16;;;0.07;96.01
73600;BME280;61877;48.246;9.220;2023-02-13T06:53:11;95898.78;;;0.08;96.02
73600;BME280;61877;48.246;9.220;2023-02-13T06:55:40;95900.97;;;0.11;95.59
73600;BME280;61877;48.246;9.220;2023-02-13T06:58:10;95903.13;;;0.14;95.30
73600;BME280;61877;48.246;9.220;2023-02-13T07:00:49;95903.94;;;0.15;95.73
73600;BME280;61877;48.246;9.220;2023-02-13T07:03:15;95907.81;;;0.12;95.43
73600;BME280;61877;48.246;9.220;2023-02-13T07:05:44;95910.00;;;0.15;95.35
73600;BME280;61877;48.246;9.220;2023-02-13T07:08:13;95907.38;;;0.15;95.31
73600;BME280;61877;48.246;9.220;2023-02-13T07:10:40;95909.00;;;0.16;95.40
73600;BME280;61877;48.246;9.220;2023-02-13T07:13:08;95917.91;;;0.15;95.22
73600;BME280;61877;48.246;9.220;2023-02-13T07:15:37;95908.06;;;0.11;95.33
73600;BME280;61877;48.246;9.220;2023-02-13T07:18:03;95912.53;;;0.22;95.40
73600;BME280;61877;48.246;9.220;2023-02-13T07:20:31;95908.75;;;0.18;95.27
73600;BME280;61877;48.246;9.220;2023-02-13T07:22:58;95914.97;;;0.23;95.28
73600;BME280;61877;48.246;9.220;2023-02-13T07:25:31;95918.41;;;0.24;94.80
73600;BME280;61877;48.246;9.220;2023-02-13T07:28:01;95918.97;;;0.26;94.80
73600;BME280;61877;48.246;9.220;2023-02-13T07:30:26;95922.91;;;0.35;95.04
73600;BME280;61877;48.246;9.220;2023-02-13T07:32:53;95927.94;;;0.36;95.05
73600;BME280;61877;48.246;9.220;2023-02-13T07:35:22;95935.03;;;0.36;94.85
73600;BME280;61877;48.246;9.220;2023-02-13T07:37:47;95929.78;;;0.36;94.96
73600;BME280;61877;48.246;9.220;2023-02-13T07:40:14;95933.78;;;0.38;94.45
73600;BME280;61877;48.246;9.220;2023-02-13T07:42:42;95942.28;;;0.40;93.88
73600;BME280;61877;48.246;9.220;2023-02-13T07:45:10;95943.44;;;0.44;93.43
73600;BME280;61877;48.246;9.220;2023-02-13T07:47:36;95946.66;;;0.46;93.82
73600;BME280;61877;48.246;9.220;2023-02-13T07:50:03;95945.03;;;0.45;94.15
73600;BME280;61877;48.246;9.220;2023-02-13T07:52:30;95948.38;;;0.52;93.79
73600;BME280;61877;48.246;9.220;2023-02-13T07:54:58;95949.53;;;0.56;93.29
73600;BME280;61877;48.246;9.220;2023-02-13T07:57:25;95950.09;;;0.58;93.92
73600;BME280;61877;48.246;9.220;2023-02-13T07:59:54;95952.84;;;0.63;93.12
73600;BME280;61877;48.246;9.220;2023-02-13T08:02:21;95952.28;;;0.61;92.93
73600;BME280;61877;48.246;9.220;2023-02-13T08:04:48;95954.69;;;0.63;93.30
73600;BME280;61877;48.246;9.220;2023-02-13T08:07:15;95949.19;;;0.64;93.26
73600;BME280;61877;48.246;9.220;2023-02-13T08:09:43;95950.31;;;0.68;92.94
73600;BME280;61877;48.246;9.220;2023-02-13T08:12:10;95950.66;;;0.72;92.73
73600;BME280;61877;48.246;9.220;2023-02-13T08:14:36;95952.28;;;0.73;92.92
73600;BME280;61877;48.246;9.220;2023-02-13T08:17:05;95956.88;;;0.77;93.32
73600;BME280;61877;48.246;9.220;2023-02-13T08:19:32;95963.88;;;0.72;92.66
73600;BME280;61877;48.246;9.220;2023-02-13T08:22:01;95959.63;;;0.82;91.30
73600;BME280;61877;48.246;9.220;2023-02-13T08:24:28;95952.03;;;0.86;92.15
73600;BME280;61877;48.246;9.220;2023-02-13T08:26:54;95953.88;;;0.85;92.24
73600;BME280;61877;48.246;9.220;2023-02-13T08:29:30;95961.78;;;0.97;93.04
73600;BME280;61877;48.246;9.220;2023-02-13T08:32:08;95959.97;;;0.86;91.47
73600;BME280;61877;48.246;9.220;2023-02-13T08:34:45;95954.44;;;0.99;91.93
73600;BME280;61877;48.246;9.220;2023-02-13T08:37:12;95954.88;;;1.07;91.59
73600;BME280;61877;48.246;9.220;2023-02-13T08:39:42;95956.94;;;1.17;91.24
73600;BME280;61877;48.246;9.220;2023-02-13T08:42:13;95949.34;;;1.20;90.81
73600;BME280;61877;48.246;9.220;2023-02-13T08:44:42;95969.19;;;1.23;90.06
73600;BME280;61877;48.246;9.220;2023-02-13T08:47:22;95955.09;;;1.17;89.86
73600;BME280;61877;48.246;9.220;2023-02-13T08:50:03;95958.06;;;1.33;90.77
73600;BME280;61877;48.246;9.220;2023-02-13T08:53:00;95963.06;;;1.46;89.43
73600;BME280;61877;48.246;9.220;2023-02-13T08:55:34;95959.38;;;1.47;89.72
73600;BME280;61877;48.246;9.220;2023-02-13T08:58:08;95963.78;;;1.29;88.92
73600;BME280;61877;48.246;9.220;2023-02-13T09:00:38;95958.66;;;1.51;89.01
73600;BME280;61877;48.246;9.220;2023-02-13T09:03:05;95951.06;;;1.55;88.50
73600;BME280;61877;48.246;9.220;2023-02-13T09:05:33;95953.44;;;1.68;87.55
73600;BME280;61877;48.246;9.220;2023-02-13T09:08:00;95955.06;;;1.69;87.96
73600;BME280;61877;48.246;9.220;2023-02-13T09:10:31;95945.50;;;1.68;89.09
73600;BME280;61877;48.246;9.220;2023-02-13T09:13:11;95942.00;;;1.79;88.85
73600;BME280;61877;48.246;9.220;2023-02-13T09:15:38;95949.56;;;1.87;88.25
73600;BME280;61877;48.246;9.220;2023-02-13T09:18:10;95936.75;;;1.95;87.98
73600;BME280;61877;48.246;9.220;2023-02-13T09:20:40;95943.31;;;1.93;88.14
73600;BME280;61877;48.246;9.220;2023-02-13T09:23:23;95942.97;;;1.89;88.31
73600;BME280;61877;48.246;9.220;2023-02-13T09:25:53;95943.41;;;1.98;88.16
73600;BME280;61877;48.246;9.220;2023-02-13T09:28:22;95935.16;;;2.11;87.97
73600;BME280;61877;48.246;9.220;2023-02-13T09:30:52;95934.69;;;2.14;87.01
73600;BME280;61877;48.246;9.220;2023-02-13T09:33:21;95934.53;;;2.20;86.59
73600;BME280;61877;48.246;9.220;2023-02-13T09:36:17;95934.53;;;2.20;86.40
73600;BME280;61877;48.246;9.220;2023-02-13T09:38:53;95933.91;;;2.30;85.83
73600;BME280;61877;48.246;9.220;2023-02-13T09:41:27;95938.13;;;2.31;85.61
73600;BME280;61877;48.246;9.220;2023-02-13T09:43:59;95929.72;;;2.34;85.68
73600;BME280;61877;48.246;9.220;2023-02-13T09:46:31;95924.97;;;2.36;86.20
73600;BME280;61877;48.246;9.220;2023-02-13T09:49:17;95921.47;;;2.47;85.71
73600;BME280;61877;48.246;9.220;2023-02-13T09:51:53;95935.56;;;2.19;85.48
73600;BME280;61877;48.246;9.220;2023-02-13T09:54:27;95936.63;;;2.35;85.47
73600;BME280;61877;48.246;9.220;2023-02-13T09:56:59;95931.81;;;2.32;85.32
73600;BME280;61877;48.246;9.220;2023-02-13T09:59:38;95930.03;;;2.21;87.22
73600;BME280;61877;48.246;9.220;2023-02-13T10:02:34;95935.00;;;2.34;85.48
73600;BME280;61877;48.246;9.220;2023-02-13T10:05:33;95937.50;;;2.40;85.78
73600;BME280;61877;48.246;9.220;2023-02-13T10:08:15;95937.28;;;2.42;86.52
73600;BME280;61877;48.246;9.220;2023-02-13T10:10:52;95941.25;;;2.61;86.41
73600;BME280;61877;48.246;9.220;2023-02-13T10:13:37;95940.78;;;2.47;85.59
73600;BME280;61877;48.246;9.220;2023-02-13T10:16:14;95933.97;;;2.51;84.63
73600;BME280;61877;48.246;9.220;2023-02-13T10:18:47;95939.19;;;2.63;86.19
73600;BME280;61877;48.246;9.220;2023-02-13T10:21:26;95938.13;;;2.64;85.87
73600;BME280;61877;48.246;9.220;2023-02-13T10:24:00;95944.81;;;2.67;84.44
73600;BME280;61877;48.246;9.220;2023-02-13T10:26:32;95941.81;;;2.63;85.95
73600;BME280;61877;48.246;9.220;2023-02-13T10:29:04;95944.94;;;2.77;86.36
73600;BME280;61877;48.246;9.220;2023-02-13T10:31:40;95944.72;;;2.61;84.01
73600;BME280;61877;48.246;9.220;2023-02-13T10:34:13;95950.59;;;2.47;85.22
73600;BME280;61877;48.246;9.220;2023-02-13T10:36:45;95951.22;;;2.54;85.73
73600;BME280;61877;48.246;9.220;2023-02-13T10:39:22;95948.94;;;2.79;84.66
73600;BME280;61877;48.246;9.220;2023-02-13T10:41:52;95951.41;;;3.02;84.90
73600;BME280;61877;48.246;9.220;2023-02-13T10:44:37;95939.81;;;2.70;84.39
73600;BME280;61877;48.246;9.220;2023-02-13T10:47:17;95941.38;;;2.88;85.95
73600;BME280;61877;48.246;9.220;2023-02-13T10:50:07;95937.47;;;2.90;84.69
73600;BME280;61877;48.246;9.220;2023-02-13T10:52:46;95934.88;;;3.17;83.58
73600;BME280;61877;48.246;9.220;2023-02-13T10:55:34;95925.97;;;3.44;83.54
73600;BME280;61877;48.246;9.220;2023-02-13T10:58:18;95922.31;;;3.29;81.98
73600;BME280;61877;48.246;9.220;2023-02-13T11:00:54;95924.66;;;3.25;82.57
73600;BME280;61877;48.246;9.220;2023-02-13T11:03:23;95926.63;;;3.56;83.12
73600;BME280;61877;48.246;9.220;2023-02-13T11:05:50;95918.63;;;3.51;81.04
73600;BME280;61877;48.246;9.220;2023-02-13T11:08:22;95918.63;;;3.30;81.90
73600;BME280;61877;48.246;9.220;2023-02-13T11:10:54;95925.41;;;3.42;82.28
73600;BME280;61877;48.246;9.220;2023-02-13T11:13:26;95915.59;;;3.21;82.03
73600;BME280;61877;48.246;9.220;2023-02-13T11:16:10;95917.13;;;3.39;83.29
73600;BME280;61877;48.246;9.220;2023-02-13T11:18:48;95915.91;;;3.46;80.83
73600;BME280;61877;48.246;9.220;2023-02-13T11:21:20;95915.53;;;3.38;82.82
73600;BME280;61877;48.246;9.220;2023-02-13T11:23:53;95914.72;;;3.59;81.43
73600;BME280;61877;48.246;9.220;2023-02-13T11:26:28;95909.06;;;3.77;81.38
73600;BME280;61877;48.246;9.220;2023-02-13T11:28:59;95910.78;;;3.61;82.01
73600;BME280;61877;48.246;9.220;2023-02-13T11:31:28;95914.44;;;3.60;81.39
73600;BME280;61877;48.246;9.220;2023-02-13T11:34:24;95914.66;;;3.80;81.22
73600;BME280;61877;48.246;9.220;2023-02-13T11:37:07;95913.56;;;3.76;81.52
73600;BME280;61877;48.246;9.220;2023-02-13T11:39:46;95915.69;;;3.74;81.27
73600;BME280;61877;48.246;9.220;2023-02-13T11:42:18;95912.00;;;3.54;81.69
73600;BME280;61877;48.246;9.220;2023-02-13T11:44:49;95908.00;;;3.51;80.96
73600;BME280;61877;48.246;9.220;2023-02-13T11:47:34;95906.63;;;3.49;80.87
73600;BME280;61877;48.246;9.220;2023-02-13T11:50:01;95916.56;;;3.37;81.76
73600;BME280;61877;48.246;9.220;2023-02-13T11:52:32;95909.28;;;3.49;82.65
73600;BME280;61877;48.246;9.220;2023-02-13T11:55:04;95909.16;;;3.60;81.21
73600;BME280;61877;48.246;9.220;2023-02-13T11:57:34;95909.75;;;3.94;81.49
73600;BME280;61877;48.246;9.220;2023-02-13T12:02:51;95903.09;;;3.91;80.45
73600;BME280;61877;48.246;9.220;2023-02-13T12:05:19;95898.13;;;3.73;80.61
73600;BME280;61877;48.246;9.220;2023-02-13T12:08:07;95903.22;;;3.53;81.58
73600;BME280;61877;48.246;9.220;2023-02-13T12:10:37;95902.41;;;3.26;82.55
73600;BME280;61877;48.246;9.220;2023-02-13T12:13:11;95902.03;;;3.39;83.05
73600;BME280;61877;48.246;9.220;2023-02-13T12:15:39;95901.53;;;3.42;82.34
73600;BME280;61877;48.246;9.220;2023-02-13T12:18:14;95899.53;;;3.54;81.46
73600;BME280;61877;48.246;9.220;2023-02-13T12:20:52;95903.44;;;3.73;81.42
73600;BME280;61877;48.246;9.220;2023-02-13T12:23:38;95893.63;;;3.74;80.24
73600;BME280;61877;48.246;9.220;2023-02-13T12:26:25;95897.72;;;3.86;80.75
73600;BME280;61877;48.246;9.220;2023-02-13T12:29:22;95899.75;;;3.74;80.82
73600;BME280;61877;48.246;9.220;2023-02-13T12:32:01;95892.25;;;3.66;81.29
73600;BME280;61877;48.246;9.220;2023-02-13T12:35:17;95895.31;;;3.58;80.40
73600;BME280;61877;48.246;9.220;2023-02-13T12:37:55;95897.94;;;3.80;81.10
73600;BME280;61877;48.246;9.220;2023-02-13T12:40:47;95896.03;;;3.75;80.41
73600;BME280;61877;48.246;9.220;2023-02-13T12:46:30;95888.31;;;3.47;81.68
73600;BME280;61877;48.246;9.220;2023-02-13T12:49:14;95890.91;;;3.42;82.82
73600;BME280;61877;48.246;9.220;2023-02-13T12:51:53;95879.19;;;3.65;81.11
73600;BME280;61877;48.246;9.220;2023-02-13T12:54:38;95887.88;;;3.55;81.26
73600;BME280;61877;48.246;9.220;2023-02-13T12:57:34;95885.94;;;3.72;81.91
73600;BME280;61877;48.246;9.220;2023-02-13T13:00:23;95878.72;;;3.94;81.92
73600;BME280;61877;48.246;9.220;2023-02-13T13:06:37;95881.41;;;4.00;80.60
73600;BME280;61877;48.246;9.220;2023-02-13T13:09:20;95871.47;;;3.90;79.81
73600;BME280;61877;48.246;9.220;2023-02-13T13:12:13;95880.50;;;3.89;81.06
73600;BME280;61877;48.246;9.220;2023-02-13T13:14:52;95873.00;;;4.08;80.48
73600;BME280;61877;48.246;9.220;2023-02-13T13:17:40;95871.66;;;4.10;79.97
73600;BME280;61877;48.246;9.220;2023-02-13T13:23:12;95868.25;;;4.15;79.60
73600;BME280;61877;48.246;9.220;2023-02-13T13:25:46;95874.16;;;4.22;79.83
73600;BME280;61877;48.246;9.220;2023-02-13T13:28:31;95871.22;;;4.23;79.72
73600;BME280;61877;48.246;9.220;2023-02-13T13:31:01;95864.19;;;4.39;79.52
73600;BME280;61877;48.246;9.220;2023-02-13T13:33:30;95864.84;;;3.87;80.15
73600;BME280;61877;48.246;9.220;2023-02-13T13:36:04;95865.59;;;4.15;78.61
73600;BME280;61877;48.246;9.220;2023-02-13T13:38:58;95862.09;;;4.09;79.67
73600;BME280;61877;48.246;9.220;2023-02-13T13:41:34;95865.22;;;4.01;79.81
73600;BME280;61877;48.246;9.220;2023-02-13T13:44:26;95856.81;;;3.82;80.95
73600;BME280;61877;48.246;9.220;2023-02-13T13:47:09;95862.91;;;3.78;81.29